createdAt,value
2022-09-15T20:05:07.137Z,17.57
2022-09-15T20:10:14.706Z,17.57
2022-09-15T20:15:22.343Z,17.46
2022-09-15T20:20:32.961Z,17.37
2022-09-15T20:25:40.505Z,17.21
2022-09-15T20:30:48.035Z,17.06
2022-09-15T20:35:58.726Z,16.99
2022-09-15T20:41:07.112Z,16.89
2022-09-15T20:46:16.638Z,16.83
2022-09-15T20:51:29.705Z,16.74
2022-09-15T20:56:38.796Z,16.57
2022-09-15T21:08:09.286Z,16.37
2022-09-15T21:13:16.756Z,16.33
2022-09-15T21:18:25.346Z,16.26
2022-09-15T21:23:40.280Z,16.23
2022-09-15T21:28:48.798Z,16.12
2022-09-15T21:33:57.045Z,16.08
2022-09-15T21:39:07.099Z,16.08
2022-09-15T21:44:15.240Z,16.00
2022-09-15T21:49:23.059Z,15.89
2022-09-15T21:54:33.170Z,15.83
2022-09-15T21:59:41.500Z,15.80
2022-09-15T22:04:49.047Z,15.81
2022-09-15T22:09:59.087Z,15.85
2022-09-15T22:15:07.465Z,15.84
2022-09-15T22:20:15.031Z,15.84
2022-09-15T22:25:25.237Z,15.89
2022-09-15T22:30:32.725Z,15.87
2022-09-15T22:35:40.204Z,15.87
2022-09-15T22:40:50.287Z,15.90
2022-09-15T22:45:57.824Z,15.89
2022-09-15T22:51:07.002Z,15.91
2022-09-15T22:56:20.010Z,15.94
2022-09-15T23:01:30.560Z,15.94
2022-09-15T23:06:38.091Z,15.98
2022-09-15T23:11:48.150Z,16.01
2022-09-15T23:16:55.658Z,16.00
2022-09-15T23:22:03.141Z,15.99
2022-09-15T23:27:13.210Z,16.00
2022-09-15T23:32:20.685Z,15.99
2022-09-15T23:37:28.210Z,15.99
2022-09-15T23:42:38.281Z,16.02
2022-09-15T23:47:45.780Z,16.02
2022-09-15T23:52:53.258Z,16.04
2022-09-15T23:58:03.602Z,16.08
